sensor_id;sensor_type;location;lat;lon;timestamp;pressure;altitude;pressure_sealevel;temperature;humidity
62524;BME280;53689;56.878;60.672;2023-08-20T00:01:15;98543.19;;;20.33;39.05
62524;BME280;53689;56.878;60.672;2023-08-20T00:03:45;98544.22;;;19.93;39.46
62524;BME280;53689;56.878;60.672;2023-08-20T00:06:13;98545.19;;;19.92;39.88
62524;BME280;53689;56.878;60.672;2023-08-20T00:08:41;98542.66;;;19.99;39.56
62524;BME280;53689;56.878;60.672;2023-08-20T00:11:11;98540.44;;;20.41;38.70
62524;BME280;53689;56.878;60.672;2023-08-20T00:13:39;98541.66;;;20.15;38.97
62524;BME280;53689;56.878;60.672;2023-08-20T00:16:09;98538.88;;;20.08;39.39
62524;BME280;53689;56.878;60.672;2023-08-20T00:18:38;98537.16;;;20.16;38.67
62524;BME280;53689;56.878;60.672;2023-08-20T00:21:08;98535.28;;;20.55;38.32
62524;BME280;53689;56.878;60.672;2023-08-20T00:23:36;98534.47;;;20.16;39.28
62524;BME280;53689;56.878;60.672;2023-08-20T00:26:05;98540.19;;;19.89;39.45
62524;BME280;53689;56.878;60.672;2023-08-20T00:28:34;98532.47;;;20.09;38.94
62524;BME280;53689;56.878;60.672;2023-08-20T00:31:02;98540.19;;;20.51;38.32
62524;BME280;53689;56.878;60.672;2023-08-20T00:33:31;98537.72;;;20.26;38.77
62524;BME280;53689;56.878;60.672;2023-08-20T00:35:59;98545.28;;;20.07;39.45
62524;BME280;53689;56.878;60.672;2023-08-20T00:38:26;98539.38;;;20.27;39.05
62524;BME280;53689;56.878;60.672;2023-08-20T00:40:55;98532.38;;;20.71;37.94
62524;BME280;53689;56.878;60.672;2023-08-20T00:43:22;98541.28;;;20.42;38.65
62524;BME280;53689;56.878;60.672;2023-08-20T00:45:51;98548.03;;;20.37;38.60
62524;BME280;53689;56.878;60.672;2023-08-20T00:48:20;98541.00;;;20.51;38.68
62524;BME280;53689;56.878;60.672;2023-08-20T00:50:48;98548.06;;;20.68;38.08
62524;BME280;53689;56.878;60.672;2023-08-20T00:53:17;98544.69;;;20.35;38.74
62524;BME280;53689;56.878;60.672;2023-08-20T00:55:46;98551.63;;;20.30;38.69
62524;BME280;53689;56.878;60.672;2023-08-20T00:58:14;98554.22;;;20.91;37.86
62524;BME280;53689;56.878;60.672;2023-08-20T01:00:41;98552.28;;;21.52;36.92
62524;BME280;53689;56.878;60.672;2023-08-20T01:03:11;98553.81;;;21.61;36.44
62524;BME280;53689;56.878;60.672;2023-08-20T01:05:43;98558.28;;;21.69;37.10
62524;BME280;53689;56.878;60.672;2023-08-20T01:08:25;98566.56;;;21.89;36.46
62524;BME280;53689;56.878;60.672;2023-08-20T01:10:59;98568.28;;;22.19;36.55
62524;BME280;53689;56.878;60.672;2023-08-20T01:13:28;98575.69;;;22.10;36.79
62524;BME280;53689;56.878;60.672;2023-08-20T01:15:56;98577.97;;;22.13;36.33
62524;BME280;53689;56.878;60.672;2023-08-20T01:18:25;98582.91;;;22.10;36.36
62524;BME280;53689;56.878;60.672;2023-08-20T01:20:55;98581.53;;;22.14;36.89
62524;BME280;53689;56.878;60.672;2023-08-20T01:27:07;98585.47;;;22.18;35.86
62524;BME280;53689;56.878;60.672;2023-08-20T01:29:39;98590.88;;;22.18;36.58
62524;BME280;53689;56.878;60.672;2023-08-20T01:32:08;98585.81;;;22.30;35.87
62524;BME280;53689;56.878;60.672;2023-08-20T01:34:37;98585.16;;;22.50;36.44
62524;BME280;53689;56.878;60.672;2023-08-20T01:37:05;98593.81;;;22.45;35.45
62524;BME280;53689;56.878;60.672;2023-08-20T01:39:35;98589.25;;;22.45;35.34
62524;BME280;53689;56.878;60.672;2023-08-20T01:42:03;98590.97;;;22.25;35.32
62524;BME280;53689;56.878;60.672;2023-08-20T01:44:31;98594.59;;;22.39;35.67
62524;BME280;53689;56.878;60.672;2023-08-20T01:47:00;98591.25;;;22.58;35.54
62524;BME280;53689;56.878;60.672;2023-08-20T01:49:28;98588.97;;;22.62;35.51
62524;BME280;53689;56.878;60.672;2023-08-20T01:51:56;98593.53;;;22.62;35.29
62524;BME280;53689;56.878;60.672;2023-08-20T01:54:24;98592.97;;;22.66;35.66
62524;BME280;53689;56.878;60.672;2023-08-20T01:56:51;98585.94;;;22.72;35.66
62524;BME280;53689;56.878;60.672;2023-08-20T01:59:21;98585.69;;;22.67;35.75
62524;BME280;53689;56.878;60.672;2023-08-20T02:01:49;98585.44;;;22.62;35.64
62524;BME280;53689;56.878;60.672;2023-08-20T02:04:18;98583.81;;;22.67;36.57
62524;BME280;53689;56.878;60.672;2023-08-20T02:06:46;98587.41;;;22.75;36.06
62524;BME280;53689;56.878;60.672;2023-08-20T02:09:14;98583.22;;;22.72;36.92
62524;BME280;53689;56.878;60.672;2023-08-20T02:11:42;98585.09;;;22.71;36.64
62524;BME280;53689;56.878;60.672;2023-08-20T02:14:09;98576.00;;;22.72;36.61
62524;BME280;53689;56.878;60.672;2023-08-20T02:16:37;98592.50;;;22.91;36.02
62524;BME280;53689;56.878;60.672;2023-08-20T02:19:05;98588.81;;;22.70;36.56
62524;BME280;53689;56.878;60.672;2023-08-20T02:21:34;98595.13;;;22.49;36.01
62524;BME280;53689;56.878;60.672;2023-08-20T02:24:02;98593.19;;;21.99;36.49
62524;BME280;53689;56.878;60.672;2023-08-20T02:26:30;98593.66;;;22.03;36.22
62524;BME280;53689;56.878;60.672;2023-08-20T02:28:58;98593.22;;;21.62;36.98
62524;BME280;53689;56.878;60.672;2023-08-20T02:31:26;98588.25;;;21.29;36.56
62524;BME280;53689;56.878;60.672;2023-08-20T02:33:57;98593.06;;;21.34;36.72
62524;BME280;53689;56.878;60.672;2023-08-20T02:36:25;98597.50;;;21.57;36.08
62524;BME280;53689;56.878;60.672;2023-08-20T02:38:54;98593.78;;;21.06;37.33
62524;BME280;53689;56.878;60.672;2023-08-20T02:41:22;98589.22;;;20.91;37.54
62524;BME280;53689;56.878;60.672;2023-08-20T02:43:50;98592.00;;;20.83;37.46
62524;BME280;53689;56.878;60.672;2023-08-20T02:46:20;98594.47;;;20.70;38.12
62524;BME280;53689;56.878;60.672;2023-08-20T02:48:47;98582.34;;;20.89;37.62
62524;BME280;53689;56.878;60.672;2023-08-20T02:51:15;98600.16;;;21.05;37.58
62524;BME280;53689;56.878;60.672;2023-08-20T02:53:43;98594.69;;;20.83;37.48
62524;BME280;53689;56.878;60.672;2023-08-20T02:56:12;98596.88;;;20.79;37.68
62524;BME280;53689;56.878;60.672;2023-08-20T02:58:40;98588.63;;;20.81;37.31
62524;BME280;53689;56.878;60.672;2023-08-20T03:01:17;98592.00;;;20.83;37.66
62524;BME280;53689;56.878;60.672;2023-08-20T03:03:45;98592.38;;;21.10;37.19
62524;BME280;53689;56.878;60.672;2023-08-20T03:06:13;98584.28;;;21.62;36.11
62524;BME280;53689;56.878;60.672;2023-08-20T03:08:41;98589.47;;;21.63;36.61
62524;BME280;53689;56.878;60.672;2023-08-20T03:11:09;98589.09;;;21.67;36.43
62524;BME280;53689;56.878;60.672;2023-08-20T03:13:38;98579.78;;;21.47;36.80
62524;BME280;53689;56.878;60.672;2023-08-20T03:16:06;98583.16;;;21.71;36.62
62524;BME280;53689;56.878;60.672;2023-08-20T03:18:33;98579.19;;;21.89;35.78
62524;BME280;53689;56.878;60.672;2023-08-20T03:21:02;98574.09;;;21.94;35.83
62524;BME280;53689;56.878;60.672;2023-08-20T03:23:30;98572.16;;;21.88;35.96
62524;BME280;53689;56.878;60.672;2023-08-20T03:25:58;98575.94;;;21.94;35.92
62524;BME280;53689;56.878;60.672;2023-08-20T03:28:25;98570.09;;;21.90;36.42
62524;BME280;53689;56.878;60.672;2023-08-20T03:30:55;98571.84;;;21.61;36.28
62524;BME280;53689;56.878;60.672;2023-08-20T03:33:26;98575.03;;;21.49;37.24
62524;BME280;53689;56.878;60.672;2023-08-20T03:35:55;98578.72;;;21.27;37.03
62524;BME280;53689;56.878;60.672;2023-08-20T03:38:26;98577.47;;;21.81;36.65
62524;BME280;53689;56.878;60.672;2023-08-20T03:40:55;98573.09;;;22.02;36.42
62524;BME280;53689;56.878;60.672;2023-08-20T03:43:25;98571.78;;;21.91;36.32
62524;BME280;53689;56.878;60.672;2023-08-20T03:45:55;98571.06;;;21.82;36.86
62524;BME280;53689;56.878;60.672;2023-08-20T03:48:22;98570.47;;;22.09;36.37
62524;BME280;53689;56.878;60.672;2023-08-20T03:50:50;98561.34;;;22.31;36.49
62524;BME280;53689;56.878;60.672;2023-08-20T03:53:18;98561.03;;;22.20;36.84
62524;BME280;53689;56.878;60.672;2023-08-20T03:55:48;98561.13;;;21.83;36.81
62524;BME280;53689;56.878;60.672;2023-08-20T03:58:15;98558.66;;;21.14;37.63
62524;BME280;53689;56.878;60.672;2023-08-20T04:00:43;98560.72;;;20.97;37.86
62524;BME280;53689;56.878;60.672;2023-08-20T04:03:14;98564.13;;;20.91;37.84
62524;BME280;53689;56.878;60.672;2023-08-20T04:05:42;98571.84;;;20.79;37.93
62524;BME280;53689;56.878;60.672;2023-08-20T04:08:10;98567.09;;;20.81;38.21
62524;BME280;53689;56.878;60.672;2023-08-20T04:10:43;98573.91;;;21.07;37.30
62524;BME280;53689;56.878;60.672;2023-08-20T04:13:10;98569.44;;;20.84;37.74
62524;BME280;53689;56.878;60.672;2023-08-20T04:15:38;98567.69;;;20.91;37.58
62524;BME280;53689;56.878;60.672;2023-08-20T04:18:06;98565.44;;;20.80;38.21
62524;BME280;53689;56.878;60.672;2023-08-20T04:20:35;98563.22;;;20.99;38.49
62524;BME280;53689;56.878;60.672;2023-08-20T04:23:04;98551.06;;;21.03;37.12
62524;BME280;53689;56.878;60.672;2023-08-20T04:25:32;98557.06;;;21.05;37.33
62524;BME280;53689;56.878;60.672;2023-08-20T04:28:00;98556.44;;;21.03;37.47
62524;BME280;53689;56.878;60.672;2023-08-20T04:30:28;98544.59;;;21.34;36.81
62524;BME280;53689;56.878;60.672;2023-08-20T04:32:56;98552.59;;;21.27;36.80
62524;BME280;53689;56.878;60.672;2023-08-20T04:35:24;98541.88;;;21.49;37.19
62524;BME280;53689;56.878;60.672;2023-08-20T04:37:53;98553.34;;;21.73;36.74
62524;BME280;53689;56.878;60.672;2023-08-20T04:40:21;98544.88;;;21.39;36.81
62524;BME280;53689;56.878;60.672;2023-08-20T04:42:51;98545.16;;;21.44;36.62
62524;BME280;53689;56.878;60.672;2023-08-20T04:45:19;98545.91;;;21.60;36.85
62524;BME280;53689;56.878;60.672;2023-08-20T04:47:48;98547.44;;;22.06;38.07
62524;BME280;53689;56.878;60.672;2023-08-20T04:50:16;98544.59;;;22.14;36.47
62524;BME280;53689;56.878;60.672;2023-08-20T04:52:48;98535.78;;;22.27;36.09
62524;BME280;53689;56.878;60.672;2023-08-20T04:55:17;98541.00;;;21.85;36.28
62524;BME280;53689;56.878;60.672;2023-08-20T04:57:46;98526.78;;;21.70;36.29
62524;BME280;53689;56.878;60.672;2023-08-20T05:00:15;98529.66;;;21.68;36.10
62524;BME280;53689;56.878;60.672;2023-08-20T05:02:48;98528.66;;;21.91;38.71
62524;BME280;53689;56.878;60.672;2023-08-20T05:05:18;98525.94;;;22.13;35.45
62524;BME280;53689;56.878;60.672;2023-08-20T05:07:46;98535.38;;;22.02;36.04
62524;BME280;53689;56.878;60.672;2023-08-20T05:10:14;98536.09;;;21.67;35.91
62524;BME280;53689;56.878;60.672;2023-08-20T05:12:43;98524.34;;;21.75;35.58
62524;BME280;53689;56.878;60.672;2023-08-20T05:15:11;98533.00;;;21.92;34.89
62524;BME280;53689;56.878;60.672;2023-08-20T05:17:39;98533.25;;;21.75;34.88
62524;BME280;53689;56.878;60.672;2023-08-20T05:20:08;98525.25;;;21.82;34.89
62524;BME280;53689;56.878;60.672;2023-08-20T05:22:37;98519.59;;;21.99;34.82
62524;BME280;53689;56.878;60.672;2023-08-20T05:25:06;98516.03;;;21.98;37.76
62524;BME280;53689;56.878;60.672;2023-08-20T05:27:35;98522.50;;;22.54;35.65
62524;BME280;53689;56.878;60.672;2023-08-20T05:30:07;98525.38;;;22.24;36.09
62524;BME280;53689;56.878;60.672;2023-08-20T05:32:36;98524.13;;;22.20;37.54
62524;BME280;53689;56.878;60.672;2023-08-20T05:35:05;98523.38;;;22.33;34.52
62524;BME280;53689;56.878;60.672;2023-08-20T05:37:36;98524.16;;;22.27;34.76
62524;BME280;53689;56.878;60.672;2023-08-20T05:40:04;98527.47;;;21.79;35.13
62524;BME280;53689;56.878;60.672;2023-08-20T05:42:34;98523.47;;;21.68;35.57
62524;BME280;53689;56.878;60.672;2023-08-20T05:45:08;98527.03;;;21.97;36.18
62524;BME280;53689;56.878;60.672;2023-08-20T05:47:37;98511.50;;;22.27;35.94
62524;BME280;53689;56.878;60.672;2023-08-20T05:50:08;98510.09;;;22.60;36.25
62524;BME280;53689;56.878;60.672;2023-08-20T05:52:36;98512.81;;;22.38;35.05
62524;BME280;53689;56.878;60.672;2023-08-20T05:55:05;98507.41;;;22.10;34.55
62524;BME280;53689;56.878;60.672;2023-08-20T05:57:35;98509.66;;;21.78;34.56
62524;BME280;53689;56.878;60.672;2023-08-20T06:00:03;98505.97;;;21.85;34.28
62524;BME280;53689;56.878;60.672;2023-08-20T06:02:40;98505.97;;;21.85;34.57
62524;BME280;53689;56.878;60.672;2023-08-20T06:05:09;98499.00;;;21.91;36.31
62524;BME280;53689;56.878;60.672;2023-08-20T06:07:38;98493.16;;;22.16;34.38
62524;BME280;53689;56.878;60.672;2023-08-20T06:10:07;98493.75;;;22.11;34.72
62524;BME280;53689;56.878;60.672;2023-08-20T06:12:36;98487.69;;;22.02;36.21
62524;BME280;53689;56.878;60.672;2023-08-20T06:15:06;98488.63;;;22.16;34.06
62524;BME280;53689;56.878;60.672;2023-08-20T06:17:34;98482.03;;;22.26;33.78
62524;BME280;53689;56.878;60.672;2023-08-20T06:20:04;98486.13;;;22.85;36.80
62524;BME280;53689;56.878;60.672;2023-08-20T06:22:33;98477.09;;;22.65;35.55
62524;BME280;53689;56.878;60.672;2023-08-20T06:25:02;98471.66;;;22.51;36.16
62524;BME280;53689;56.878;60.672;2023-08-20T06:27:30;98469.25;;;22.41;33.60
62524;BME280;53689;56.878;60.672;2023-08-20T06:29:59;98466.19;;;22.16;33.96
62524;BME280;53689;56.878;60.672;2023-08-20T06:32:28;98463.00;;;22.06;34.75
62524;BME280;53689;56.878;60.672;2023-08-20T06:34:57;98458.16;;;21.94;34.50
62524;BME280;53689;56.878;60.672;2023-08-20T06:37:27;98451.59;;;22.03;33.82
62524;BME280;53689;56.878;60.672;2023-08-20T06:39:55;98449.69;;;22.61;36.71
62524;BME280;53689;56.878;60.672;2023-08-20T06:42:24;98449.78;;;22.46;32.82
62524;BME280;53689;56.878;60.672;2023-08-20T06:44:52;98448.22;;;23.00;36.95
62524;BME280;53689;56.878;60.672;2023-08-20T06:47:20;98448.38;;;22.92;33.32
62524;BME280;53689;56.878;60.672;2023-08-20T06:49:47;98445.13;;;23.17;34.45
62524;BME280;53689;56.878;60.672;2023-08-20T06:52:15;98449.31;;;22.71;34.03
62524;BME280;53689;56.878;60.672;2023-08-20T06:54:44;98447.66;;;22.70;33.74
62524;BME280;53689;56.878;60.672;2023-08-20T06:57:12;98446.59;;;22.29;33.61
62524;BME280;53689;56.878;60.672;2023-08-20T06:59:40;98439.81;;;22.11;32.83
62524;BME280;53689;56.878;60.672;2023-08-20T07:02:07;98426.50;;;22.03;32.71
62524;BME280;53689;56.878;60.672;2023-08-20T07:04:35;98424.97;;;21.94;31.70
62524;BME280;53689;56.878;60.672;2023-08-20T07:07:03;98426.63;;;22.23;31.26
62524;BME280;53689;56.878;60.672;2023-08-20T07:09:30;98423.50;;;22.20;31.95
62524;BME280;53689;56.878;60.672;2023-08-20T07:11:59;98426.66;;;22.58;31.51
62524;BME280;53689;56.878;60.672;2023-08-20T07:14:27;98413.72;;;22.96;30.86
62524;BME280;53689;56.878;60.672;2023-08-20T07:16:55;98409.53;;;22.86;33.10
62524;BME280;53689;56.878;60.672;2023-08-20T07:19:23;98411.31;;;22.66;33.71
62524;BME280;53689;56.878;60.672;2023-08-20T07:21:51;98405.16;;;22.85;33.95
62524;BME280;53689;56.878;60.672;2023-08-20T07:24:18;98401.88;;;22.97;30.74
62524;BME280;53689;56.878;60.672;2023-08-20T07:26:47;98404.94;;;22.87;32.26
62524;BME280;53689;56.878;60.672;2023-08-20T07:29:16;98404.16;;;23.07;31.97
62524;BME280;53689;56.878;60.672;2023-08-20T07:31:44;98405.97;;;22.79;33.62
62524;BME280;53689;56.878;60.672;2023-08-20T07:34:14;98405.19;;;22.99;33.81
62524;BME280;53689;56.878;60.672;2023-08-20T07:36:42;98402.69;;;22.91;33.36
62524;BME280;53689;56.878;60.672;2023-08-20T07:39:10;98409.81;;;23.19;36.12
62524;BME280;53689;56.878;60.672;2023-08-20T07:41:38;98412.56;;;23.32;34.88
62524;BME280;53689;56.878;60.672;2023-08-20T07:44:07;98403.97;;;23.08;32.34
62524;BME280;53689;56.878;60.672;2023-08-20T07:46:37;98410.25;;;23.22;33.73
62524;BME280;53689;56.878;60.672;2023-08-20T07:49:05;98399.34;;;22.82;32.48
62524;BME280;53689;56.878;60.672;2023-08-20T07:51:34;98402.25;;;22.87;33.02
62524;BME280;53689;56.878;60.672;2023-08-20T07:54:03;98406.00;;;22.99;33.43
62524;BME280;53689;56.878;60.672;2023-08-20T07:58:59;98390.25;;;23.03;32.56
62524;BME280;53689;56.878;60.672;2023-08-20T08:01:29;98388.41;;;23.17;36.02
62524;BME280;53689;56.878;60.672;2023-08-20T08:03:58;98388.56;;;22.89;31.42
62524;BME280;53689;56.878;60.672;2023-08-20T08:06:28;98387.44;;;22.63;32.60
62524;BME280;53689;56.878;60.672;2023-08-20T08:08:56;98394.22;;;23.00;31.40
62524;BME280;53689;56.878;60.672;2023-08-20T08:11:24;98393.84;;;23.24;30.56
62524;BME280;53689;56.878;60.672;2023-08-20T08:13:53;98401.28;;;23.15;31.04
62524;BME280;53689;56.878;60.672;2023-08-20T08:16:22;98397.13;;;23.12;31.56
62524;BME280;53689;56.878;60.672;2023-08-20T08:18:49;98387.31;;;22.91;31.33
62524;BME280;53689;56.878;60.672;2023-08-20T08:21:19;98387.72;;;22.88;31.60
62524;BME280;53689;56.878;60.672;2023-08-20T08:23:47;98378.19;;;22.43;31.65
62524;BME280;53689;56.878;60.672;2023-08-20T08:26:15;98373.63;;;22.44;30.74
62524;BME280;53689;56.878;60.672;2023-08-20T08:28:43;98376.91;;;22.33;30.87
62524;BME280;53689;56.878;60.672;2023-08-20T08:31:11;98369.81;;;22.25;31.29
62524;BME280;53689;56.878;60.672;2023-08-20T08:33:39;98361.31;;;22.77;31.56
62524;BME280;53689;56.878;60.672;2023-08-20T08:36:06;98372.22;;;22.48;30.13
62524;BME280;53689;56.878;60.672;2023-08-20T08:38:37;98370.63;;;22.61;31.17
62524;BME280;53689;56.878;60.672;2023-08-20T08:41:11;98371.50;;;22.81;30.11
62524;BME280;53689;56.878;60.672;2023-08-20T08:43:40;98372.53;;;22.31;31.46
62524;BME280;53689;56.878;60.672;2023-08-20T08:46:12;98367.34;;;22.37;31.28
62524;BME280;53689;56.878;60.672;2023-08-20T08:48:42;98368.03;;;22.45;31.41
62524;BME280;53689;56.878;60.672;2023-08-20T08:51:10;98363.75;;;22.58;33.45
62524;BME280;53689;56.878;60.672;2023-08-20T08:53:42;98355.84;;;22.56;30.40
62524;BME280;53689;56.878;60.672;2023-08-20T08:56:10;98358.19;;;22.24;31.14
62524;BME280;53689;56.878;60.672;2023-08-20T08:58:38;98364.75;;;22.50;33.04
62524;BME280;53689;56.878;60.672;2023-08-20T09:01:07;98358.63;;;22.90;30.93
62524;BME280;53689;56.878;60.672;2023-08-20T09:03:35;98359.81;;;22.61;31.25
62524;BME280;53689;56.878;60.672;2023-08-20T09:06:09;98356.13;;;22.75;34.08
62524;BME280;53689;56.878;60.672;2023-08-20T09:08:38;98349.72;;;22.90;31.58
62524;BME280;53689;56.878;60.672;2023-08-20T09:11:08;98351.53;;;22.69;33.62
62524;BME280;53689;56.878;60.672;2023-08-20T09:13:38;98346.41;;;22.88;30.95
62524;BME280;53689;56.878;60.672;2023-08-20T09:16:08;98341.78;;;22.68;31.30
62524;BME280;53689;56.878;60.672;2023-08-20T09:18:38;98334.16;;;22.92;33.99
62524;BME280;53689;56.878;60.672;2023-08-20T09:21:07;98340.81;;;23.09;31.89
62524;BME280;53689;56.878;60.672;2023-08-20T09:23:36;98337.09;;;22.41;32.58
62524;BME280;53689;56.878;60.672;2023-08-20T09:26:05;98343.72;;;23.01;31.99
62524;BME280;53689;56.878;60.672;2023-08-20T09:28:40;98336.03;;;23.11;33.24
62524;BME280;53689;56.878;60.672;2023-08-20T09:31:09;98336.88;;;23.12;32.03
62524;BME280;53689;56.878;60.672;2023-08-20T09:33:39;98341.63;;;23.03;31.39
62524;BME280;53689;56.878;60.672;2023-08-20T09:36:17;98336.16;;;22.63;31.46
62524;BME280;53689;56.878;60.672;2023-08-20T09:38:45;98338.59;;;22.51;31.78
62524;BME280;53689;56.878;60.672;2023-08-20T09:41:17;98342.72;;;22.47;31.43
62524;BME280;53689;56.878;60.672;2023-08-20T09:43:48;98347.25;;;22.39;31.52
62524;BME280;53689;56.878;60.672;2023-08-20T09:46:24;98339.56;;;22.92;34.25
62524;BME280;53689;56.878;60.672;2023-08-20T09:48:55;98333.34;;;22.98;31.21
62524;BME280;53689;56.878;60.672;2023-08-20T09:51:25;98328.31;;;22.81;30.91
62524;BME280;53689;56.878;60.672;2023-08-20T09:54:02;98321.06;;;22.82;32.39
62524;BME280;53689;56.878;60.672;2023-08-20T09:56:38;98326.06;;;22.98;30.79
62524;BME280;53689;56.878;60.672;2023-08-20T09:59:10;98326.09;;;23.05;30.97
62524;BME280;53689;56.878;60.672;2023-08-20T10:01:38;98321.75;;;23.31;32.79
62524;BME280;53689;56.878;60.672;2023-08-20T10:04:06;98323.81;;;23.56;31.59
62524;BME280;53689;56.878;60.672;2023-08-20T10:06:35;98320.72;;;23.32;30.75
62524;BME280;53689;56.878;60.672;2023-08-20T10:09:05;98315.44;;;22.90;31.35
62524;BME280;53689;56.878;60.672;2023-08-20T10:11:33;98315.25;;;22.78;30.75
62524;BME280;53689;56.878;60.672;2023-08-20T10:14:02;98318.84;;;23.39;30.93
62524;BME280;53689;56.878;60.672;2023-08-20T10:16:32;98312.59;;;23.59;29.82
62524;BME280;53689;56.878;60.672;2023-08-20T10:19:02;98322.59;;;23.38;30.32
62524;BME280;53689;56.878;60.672;2023-08-20T10:21:30;98316.16;;;23.53;32.96
62524;BME280;53689;56.878;60.672;2023-08-20T10:24:03;98318.16;;;23.78;33.07
62524;BME280;53689;56.878;60.672;2023-08-20T10:26:33;98313.22;;;23.68;32.06
62524;BME280;53689;56.878;60.672;2023-08-20T10:29:35;98309.50;;;23.35;30.60
62524;BME280;53689;56.878;60.672;2023-08-20T10:32:06;98301.78;;;23.19;31.01
62524;BME280;53689;56.878;60.672;2023-08-20T10:34:36;98303.25;;;23.41;30.67
62524;BME280;53689;56.878;60.672;2023-08-20T10:37:09;98297.19;;;23.12;30.51
62524;BME280;53689;56.878;60.672;2023-08-20T10:39:36;98294.09;;;23.42;30.38
62524;BME280;53689;56.878;60.672;2023-08-20T10:42:22;98289.94;;;23.13;30.46
62524;BME280;53689;56.878;60.672;2023-08-20T10:44:59;98287.84;;;23.08;31.14
62524;BME280;53689;56.878;60.672;2023-08-20T10:47:45;98278.94;;;23.14;33.44
62524;BME280;53689;56.878;60.672;2023-08-20T10:50:15;98274.78;;;23.52;32.85
62524;BME280;53689;56.878;60.672;2023-08-20T10:52:48;98278.50;;;23.72;31.16
62524;BME280;53689;56.878;60.672;2023-08-20T10:55:22;98273.31;;;23.63;30.35
62524;BME280;53689;56.878;60.672;2023-08-20T10:57:55;98268.13;;;23.41;31.04
62524;BME280;53689;56.878;60.672;2023-08-20T11:00:23;98267.94;;;23.43;30.71
62524;BME280;53689;56.878;60.672;2023-08-20T11:02:53;98265.84;;;23.25;30.36
62524;BME280;53689;56.878;60.672;2023-08-20T11:05:21;98259.81;;;23.23;30.74
62524;BME280;53689;56.878;60.672;2023-08-20T11:07:50;98255.25;;;22.83;31.62
62524;BME280;53689;56.878;60.672;2023-08-20T11:10:17;98256.53;;;23.34;31.30
62524;BME280;53689;56.878;60.672;2023-08-20T11:12:46;98260.38;;;23.72;30.46
62524;BME280;53689;56.878;60.672;2023-08-20T11:15:14;98249.84;;;23.44;30.40
62524;BME280;53689;56.878;60.672;2023-08-20T11:17:42;98251.69;;;23.63;32.78
62524;BME280;53689;56.878;60.672;2023-08-20T11:20:13;98252.88;;;23.88;32.92
62524;BME280;53689;56.878;60.672;2023-08-20T11:22:42;98245.66;;;23.68;31.20
62524;BME280;53689;56.878;60.672;2023-08-20T11:25:11;98249.81;;;23.57;30.30
62524;BME280;53689;56.878;60.672;2023-08-20T11:27:42;98241.13;;;23.48;29.94
62524;BME280;53689;56.878;60.672;2023-08-20T11:30:11;98247.72;;;23.66;33.41
62524;BME280;53689;56.878;60.672;2023-08-20T11:32:39;98242.06;;;23.74;31.13
62524;BME280;53689;56.878;60.672;2023-08-20T11:35:08;98246.06;;;23.58;30.89
62524;BME280;53689;56.878;60.672;2023-08-20T11:37:38;98241.94;;;23.49;30.58
62524;BME280;53689;56.878;60.672;2023-08-20T11:40:08;98240.28;;;23.48;31.33
62524;BME280;53689;56.878;60.672;2023-08-20T11:42:36;98232.19;;;23.41;31.46
62524;BME280;53689;56.878;60.672;2023-08-20T11:45:05;98236.50;;;23.55;31.87
62524;BME280;53689;56.878;60.672;2023-08-20T11:47:39;98215.13;;;23.40;30.82
62524;BME280;53689;56.878;60.672;2023-08-20T11:50:08;98206.59;;;23.50;31.86
62524;BME280;53689;56.878;60.672;2023-08-20T11:52:38;98215.28;;;23.73;33.39
62524;BME280;53689;56.878;60.672;2023-08-20T11:55:08;98223.69;;;24.10;29.92
62524;BME280;53689;56.878;60.672;2023-08-20T11:57:36;98214.94;;;24.01;33.78
62524;BME280;53689;56.878;60.672;2023-08-20T12:00:06;98212.25;;;24.01;31.54
62524;BME280;53689;56.878;60.672;2023-08-20T12:02:40;98209.28;;;24.16;29.27
62524;BME280;53689;56.878;60.672;2023-08-20T12:05:10;98202.22;;;24.15;33.87
62524;BME280;53689;56.878;60.672;2023-08-20T12:07:40;98200.16;;;24.10;29.02
62524;BME280;53689;56.878;60.672;2023-08-20T12:10:20;98199.97;;;23.98;33.20
62524;BME280;53689;56.878;60.672;2023-08-20T12:12:48;98191.66;;;24.00;30.42
62524;BME280;53689;56.878;60.672;2023-08-20T12:15:17;98189.47;;;23.77;31.79
62524;BME280;53689;56.878;60.672;2023-08-20T12:17:55;98179.19;;;23.47;31.70
62524;BME280;53689;56.878;60.672;2023-08-20T12:20:23;98180.78;;;23.68;34.61
62524;BME280;53689;56.878;60.672;2023-08-20T12:22:53;98180.91;;;23.80;31.96
62524;BME280;53689;56.878;60.672;2023-08-20T12:25:20;98177.28;;;24.00;33.79
62524;BME280;53689;56.878;60.672;2023-08-20T12:27:49;98178.72;;;24.09;32.92
62524;BME280;53689;56.878;60.672;2023-08-20T12:30:18;98181.88;;;24.06;31.03
62524;BME280;53689;56.878;60.672;2023-08-20T12:32:45;98173.50;;;24.14;34.30
62524;BME280;53689;56.878;60.672;2023-08-20T12:35:14;98170.41;;;24.04;31.08
62524;BME280;53689;56.878;60.672;2023-08-20T12:37:42;98173.38;;;23.95;30.86
62524;BME280;53689;56.878;60.672;2023-08-20T12:40:12;98167.41;;;23.80;31.39
62524;BME280;53689;56.878;60.672;2023-08-20T12:42:40;98162.50;;;23.63;31.03
62524;BME280;53689;56.878;60.672;2023-08-20T12:45:10;98165.88;;;23.97;30.47
62524;BME280;53689;56.878;60.672;2023-08-20T12:47:38;98155.97;;;24.23;30.68
62524;BME280;53689;56.878;60.672;2023-08-20T12:50:07;98149.78;;;24.16;31.59
62524;BME280;53689;56.878;60.672;2023-08-20T12:52:35;98154.66;;;23.94;31.91
62524;BME280;53689;56.878;60.672;2023-08-20T12:55:02;98151.66;;;23.70;31.48
62524;BME280;53689;56.878;60.672;2023-08-20T12:57:34;98152.97;;;23.54;31.40
62524;BME280;53689;56.878;60.672;2023-08-20T13:00:04;98149.25;;;23.48;31.02
62524;BME280;53689;56.878;60.672;2023-08-20T13:02:33;98142.47;;;23.78;31.18
62524;BME280;53689;56.878;60.672;2023-08-20T13:05:02;98137.88;;;23.85;31.86
62524;BME280;53689;56.878;60.672;2023-08-20T13:07:31;98137.56;;;24.07;30.63